Time;durP1;ratioP1;P1;durP2;ratioP2;P2;SDS_P1;SDS_P2;PMS_P1;PMS_P2;Temp;Humidity;BMP_temperature;BMP_pressure;BME280_temperature;BME280_humidity;BME280_pressure;Samples;Min_cycle;Max_cycle;Signal;HPM_P1;HPM_P2
2023/12/23 00:01:36;;;;;;;23.77;2.75;;;;;;;;;;4958031;28;20065;-74
2023/12/23 00:04:02;;;;;;;26.75;5.43;;;;;;;;;;4969582;28;20046;-74
2023/12/23 00:06:28;;;;;;;13.02;2.03;;;;;;;;;;4955959;28;20092;-74
2023/12/23 00:08:54;;;;;;;18.77;2.22;;;;;;;;;;4991143;28;20073;-75
2023/12/23 00:11:20;;;;;;;15.27;2.33;;;;;;;;;;4987624;28;20060;-75
2023/12/23 00:13:46;;;;;;;17.63;3.38;;;;;;;;;;4980123;28;20041;-74
2023/12/23 00:16:12;;;;;;;15.85;3.50;;;;;;;;;;4988626;28;20060;-74
2023/12/23 00:18:38;;;;;;;15.55;2.35;;;;;;;;;;4985724;28;20038;-74
2023/12/23 00:21:04;;;;;;;18.95;2.40;;;;;;;;;;4969722;28;20049;-76
2023/12/23 00:23:30;;;;;;;22.48;3.08;;;;;;;;;;4987058;28;20081;-75
2023/12/23 00:25:57;;;;;;;15.50;3.53;;;;;;;;;;4987878;28;20085;-74
2023/12/23 00:28:23;;;;;;;21.40;2.58;;;;;;;;;;4972810;28;21397;-73
2023/12/23 00:30:49;;;;;;;27.95;4.22;;;;;;;;;;4973128;28;20615;-73
2023/12/23 00:33:15;;;;;;;23.63;3.92;;;;;;;;;;4989592;28;20046;-74
2023/12/23 00:35:42;;;;;;;39.67;5.45;;;;;;;;;;4984980;28;20034;-74
2023/12/23 00:38:09;;;;;;;18.58;3.72;;;;;;;;;;4989356;28;20042;-74
2023/12/23 00:40:35;;;;;;;15.13;3.40;;;;;;;;;;4989156;28;20046;-75
2023/12/23 00:43:02;;;;;;;18.55;3.17;;;;;;;;;;4986001;28;20057;-75
2023/12/23 00:45:28;;;;;;;20.58;2.97;;;;;;;;;;4958062;28;20039;-74
2023/12/23 00:47:54;;;;;;;15.07;3.35;;;;;;;;;;4984023;28;20042;-74
2023/12/23 00:50:20;;;;;;;20.35;2.60;;;;;;;;;;4985470;28;20141;-77
2023/12/23 00:52:46;;;;;;;18.50;2.50;;;;;;;;;;4989998;28;20908;-74
2023/12/23 00:55:12;;;;;;;16.50;3.63;;;;;;;;;;4988174;28;20072;-77
2023/12/23 00:57:39;;;;;;;24.65;3.85;;;;;;;;;;4988528;28;20073;-77
2023/12/23 01:00:05;;;;;;;17.02;2.58;;;;;;;;;;4957490;28;20049;-74
2023/12/23 01:02:32;;;;;;;25.33;3.80;;;;;;;;;;4987837;28;20054;-74
2023/12/23 01:04:58;;;;;;;19.48;3.53;;;;;;;;;;4984436;28;20493;-74
2023/12/23 01:07:24;;;;;;;20.83;2.85;;;;;;;;;;4956399;28;20100;-75
2023/12/23 01:09:50;;;;;;;17.60;2.35;;;;;;;;;;4984227;28;20061;-74
2023/12/23 01:12:16;;;;;;;20.13;3.67;;;;;;;;;;4967310;28;20053;-75
2023/12/23 01:14:42;;;;;;;18.58;2.92;;;;;;;;;;4986305;28;20083;-75
2023/12/23 01:17:08;;;;;;;29.42;3.70;;;;;;;;;;4986770;28;20405;-73
2023/12/23 01:19:34;;;;;;;32.45;3.58;;;;;;;;;;4971221;28;20485;-74
2023/12/23 01:22:00;;;;;;;17.25;2.88;;;;;;;;;;4973269;28;20369;-73
2023/12/23 01:24:26;;;;;;;31.75;4.22;;;;;;;;;;4973172;28;20082;-73
2023/12/23 01:26:52;;;;;;;22.83;2.58;;;;;;;;;;4987885;28;20045;-72
2023/12/23 01:29:18;;;;;;;18.13;2.50;;;;;;;;;;4973774;28;20529;-75
2023/12/23 01:31:44;;;;;;;21.83;3.20;;;;;;;;;;4971141;28;20625;-73
2023/12/23 01:34:10;;;;;;;20.88;2.80;;;;;;;;;;4991157;28;20045;-74
2023/12/23 01:36:36;;;;;;;21.40;3.15;;;;;;;;;;4973467;28;20152;-73
2023/12/23 01:39:04;;;;;;;20.08;3.42;;;;;;;;;;4968512;28;20045;-74
2023/12/23 01:41:30;;;;;;;22.17;3.00;;;;;;;;;;4984938;28;20452;-75
2023/12/23 01:43:56;;;;;;;12.43;2.33;;;;;;;;;;4984556;28;20133;-74
2023/12/23 01:46:22;;;;;;;16.63;2.88;;;;;;;;;;4948293;28;20510;-74
2023/12/23 01:48:49;;;;;;;12.50;2.08;;;;;;;;;;4982654;28;22286;-73
2023/12/23 01:51:16;;;;;;;23.02;2.88;;;;;;;;;;4967885;28;20060;-75
2023/12/23 01:53:42;;;;;;;25.98;3.67;;;;;;;;;;4981999;28;20034;-76
2023/12/23 01:56:09;;;;;;;23.08;2.75;;;;;;;;;;4988846;28;20084;-75
2023/12/23 01:58:35;;;;;;;16.50;2.15;;;;;;;;;;4983486;28;20046;-75
2023/12/23 02:01:01;;;;;;;16.15;2.20;;;;;;;;;;4968465;28;20049;-76
2023/12/23 02:03:28;;;;;;;27.08;3.35;;;;;;;;;;4990126;28;20049;-74
2023/12/23 02:05:54;;;;;;;24.05;3.35;;;;;;;;;;4978102;28;20037;-75
2023/12/23 02:08:20;;;;;;;20.38;2.92;;;;;;;;;;4988403;28;20041;-77
2023/12/23 02:10:47;;;;;;;20.50;2.47;;;;;;;;;;4970810;28;20050;-77
2023/12/23 02:13:17;;;;;;;21.60;2.67;;;;;;;;;;4989560;28;20569;-73
2023/12/23 02:15:44;;;;;;;21.75;3.75;;;;;;;;;;4989772;28;20046;-73
2023/12/23 02:18:10;;;;;;;19.27;3.00;;;;;;;;;;4974108;28;20133;-74
2023/12/23 02:20:36;;;;;;;25.95;3.60;;;;;;;;;;4989747;28;20073;-74
2023/12/23 02:23:02;;;;;;;22.58;3.15;;;;;;;;;;4986251;28;20029;-73
2023/12/23 02:25:28;;;;;;;27.63;3.28;;;;;;;;;;4956192;28;20137;-73
2023/12/23 02:27:56;;;;;;;36.63;3.25;;;;;;;;;;4989748;28;20085;-74
2023/12/23 02:30:24;;;;;;;25.35;3.70;;;;;;;;;;4983934;28;20150;-74
2023/12/23 02:32:50;;;;;;;15.90;2.17;;;;;;;;;;4974138;28;20115;-74
2023/12/23 02:35:16;;;;;;;23.58;2.30;;;;;;;;;;4976262;28;20049;-75
2023/12/23 02:37:42;;;;;;;13.43;2.00;;;;;;;;;;4986022;28;20460;-74
2023/12/23 02:40:09;;;;;;;12.63;2.20;;;;;;;;;;4969929;28;20057;-74
2023/12/23 02:42:35;;;;;;;14.02;2.28;;;;;;;;;;4992150;28;20136;-74
2023/12/23 02:45:03;;;;;;;14.18;1.92;;;;;;;;;;4989426;28;20041;-74
2023/12/23 02:47:29;;;;;;;15.30;4.82;;;;;;;;;;4989757;28;20501;-75
2023/12/23 02:49:55;;;;;;;11.77;1.77;;;;;;;;;;4956848;28;20574;-74
2023/12/23 02:52:21;;;;;;;19.90;2.25;;;;;;;;;;4988319;28;20088;-74
2023/12/23 02:54:47;;;;;;;10.48;2.33;;;;;;;;;;4988609;28;20085;-74
2023/12/23 02:57:13;;;;;;;13.43;2.47;;;;;;;;;;4985943;28;20073;-74
2023/12/23 02:59:39;;;;;;;15.30;1.65;;;;;;;;;;4988013;28;20054;-74
2023/12/23 03:02:05;;;;;;;15.43;2.15;;;;;;;;;;4987878;28;20412;-74
2023/12/23 03:04:32;;;;;;;10.93;1.25;;;;;;;;;;4953042;28;20461;-74
2023/12/23 03:06:59;;;;;;;13.02;1.90;;;;;;;;;;4974859;28;20065;-76
2023/12/23 03:09:25;;;;;;;16.55;1.70;;;;;;;;;;4958713;28;20133;-74
2023/12/23 03:11:52;;;;;;;10.50;2.10;;;;;;;;;;4994509;28;21807;-74
2023/12/23 03:14:18;;;;;;;8.68;2.15;;;;;;;;;;4976789;28;20045;-75
2023/12/23 03:16:44;;;;;;;11.18;1.50;;;;;;;;;;4977193;28;20042;-75
2023/12/23 03:19:10;;;;;;;17.67;1.95;;;;;;;;;;4972298;28;20054;-75
2023/12/23 03:21:43;;;;;;;17.55;3.35;;;;;;;;;;4972980;28;20045;-74
2023/12/23 03:24:09;;;;;;;12.13;2.20;;;;;;;;;;4989761;28;20046;-73
2023/12/23 03:26:35;;;;;;;21.00;1.50;;;;;;;;;;4992305;28;20475;-74
2023/12/23 03:29:01;;;;;;;8.60;1.13;;;;;;;;;;4960383;28;20478;-74
2023/12/23 03:31:27;;;;;;;8.20;1.23;;;;;;;;;;4973295;28;20053;-74
2023/12/23 03:33:53;;;;;;;10.43;1.65;;;;;;;;;;4973168;28;20038;-74
2023/12/23 03:36:19;;;;;;;14.50;1.40;;;;;;;;;;4986891;28;20046;-75
2023/12/23 03:38:46;;;;;;;10.15;1.40;;;;;;;;;;4977277;28;20062;-74
2023/12/23 03:41:12;;;;;;;15.90;1.42;;;;;;;;;;4973457;28;20041;-75
2023/12/23 03:43:38;;;;;;;10.70;1.45;;;;;;;;;;4991828;28;20045;-75
2023/12/23 03:46:04;;;;;;;9.68;1.70;;;;;;;;;;4971998;28;20040;-74
2023/12/23 03:48:30;;;;;;;10.55;1.55;;;;;;;;;;4988671;28;20053;-74
2023/12/23 03:50:56;;;;;;;20.52;1.85;;;;;;;;;;4974842;28;20121;-74
2023/12/23 03:53:22;;;;;;;15.93;1.95;;;;;;;;;;4973331;28;20042;-74
2023/12/23 03:55:49;;;;;;;12.27;2.17;;;;;;;;;;4988501;28;20053;-75
2023/12/23 03:58:15;;;;;;;20.48;2.40;;;;;;;;;;4992872;28;20088;-74
2023/12/23 04:00:41;;;;;;;14.25;1.80;;;;;;;;;;4973481;28;20046;-74
2023/12/23 04:03:07;;;;;;;15.15;2.08;;;;;;;;;;4978615;28;20049;-74
2023/12/23 04:05:33;;;;;;;11.25;1.63;;;;;;;;;;4989585;28;20042;-73
2023/12/23 04:07:59;;;;;;;13.57;2.00;;;;;;;;;;4987765;28;20140;-75
2023/12/23 04:10:25;;;;;;;17.08;2.28;;;;;;;;;;4961008;28;20038;-74
2023/12/23 04:12:51;;;;;;;3.92;1.02;;;;;;;;;;4992186;28;20053;-73
2023/12/23 04:15:17;;;;;;;14.23;1.58;;;;;;;;;;4987218;28;20074;-75
2023/12/23 04:17:43;;;;;;;18.65;2.85;;;;;;;;;;4971611;28;20789;-73
2023/12/23 04:20:10;;;;;;;7.75;1.52;;;;;;;;;;4973230;28;20050;-73
2023/12/23 04:22:36;;;;;;;16.02;1.48;;;;;;;;;;4969016;28;20140;-73
2023/12/23 04:25:02;;;;;;;10.00;1.98;;;;;;;;;;4988859;28;20089;-74
2023/12/23 04:27:28;;;;;;;15.60;1.70;;;;;;;;;;4972784;28;20037;-75
2023/12/23 04:29:54;;;;;;;10.90;1.30;;;;;;;;;;4973950;28;20128;-74
2023/12/23 04:32:20;;;;;;;12.15;1.42;;;;;;;;;;4971403;28;20053;-74
2023/12/23 04:34:46;;;;;;;14.07;2.08;;;;;;;;;;4992404;28;20091;-75
2023/12/23 04:37:12;;;;;;;20.48;2.38;;;;;;;;;;4987922;28;20060;-78
2023/12/23 04:39:38;;;;;;;17.00;3.70;;;;;;;;;;4990543;28;20121;-78
2023/12/23 04:42:04;;;;;;;19.50;2.03;;;;;;;;;;4990897;28;20053;-77
2023/12/23 04:44:30;;;;;;;24.52;1.85;;;;;;;;;;4972950;28;20113;-78
2023/12/23 04:46:56;;;;;;;15.23;1.80;;;;;;;;;;4989073;28;20077;-78
2023/12/23 04:49:22;;;;;;;14.27;2.70;;;;;;;;;;4986637;28;20420;-78
2023/12/23 04:51:48;;;;;;;14.45;1.60;;;;;;;;;;4987331;28;20524;-78
2023/12/23 04:54:14;;;;;;;18.23;2.17;;;;;;;;;;4993813;28;20053;-77
2023/12/23 04:56:40;;;;;;;16.25;2.08;;;;;;;;;;4973525;28;20042;-78
2023/12/23 04:59:08;;;;;;;22.33;1.80;;;;;;;;;;4990604;28;20132;-78
2023/12/23 05:01:34;;;;;;;11.77;1.90;;;;;;;;;;4986961;28;20400;-75
2023/12/23 05:04:00;;;;;;;17.13;1.50;;;;;;;;;;4989549;28;20034;-78
2023/12/23 05:06:26;;;;;;;17.60;1.63;;;;;;;;;;4955855;28;20042;-77
2023/12/23 05:08:52;;;;;;;14.43;2.50;;;;;;;;;;4987078;28;20072;-77
2023/12/23 05:11:18;;;;;;;11.18;1.52;;;;;;;;;;4989169;28;20168;-77
2023/12/23 05:13:44;;;;;;;14.48;1.48;;;;;;;;;;4991798;28;20046;-78
2023/12/23 05:16:10;;;;;;;13.52;1.30;;;;;;;;;;4986071;28;20428;-79
2023/12/23 05:18:36;;;;;;;13.57;1.52;;;;;;;;;;4986247;28;20060;-78
2023/12/23 05:21:02;;;;;;;13.88;1.50;;;;;;;;;;4987202;28;20509;-78
2023/12/23 05:23:28;;;;;;;24.60;1.50;;;;;;;;;;4985297;28;20121;-76
2023/12/23 05:25:55;;;;;;;6.68;1.45;;;;;;;;;;4983848;28;20042;-77
2023/12/23 05:28:21;;;;;;;13.27;2.00;;;;;;;;;;4990848;28;20073;-76
2023/12/23 05:30:47;;;;;;;8.65;1.10;;;;;;;;;;4983207;28;20116;-78
2023/12/23 05:33:13;;;;;;;7.93;1.13;;;;;;;;;;4972486;28;20069;-78
2023/12/23 05:35:39;;;;;;;7.03;0.93;;;;;;;;;;4991782;28;20130;-78
2023/12/23 05:38:05;;;;;;;9.88;1.63;;;;;;;;;;4988615;28;20394;-78
2023/12/23 05:40:31;;;;;;;10.82;1.17;;;;;;;;;;4971899;28;20065;-78
2023/12/23 05:42:57;;;;;;;9.43;1.33;;;;;;;;;;4985445;28;20064;-76
2023/12/23 05:45:23;;;;;;;10.75;1.45;;;;;;;;;;4973155;28;20122;-77
2023/12/23 05:47:50;;;;;;;8.65;1.60;;;;;;;;;;4955831;28;20034;-75
2023/12/23 05:50:16;;;;;;;8.90;1.30;;;;;;;;;;4983486;28;20042;-73
2023/12/23 05:52:44;;;;;;;9.40;1.15;;;;;;;;;;4987653;28;20060;-73
2023/12/23 05:55:10;;;;;;;7.55;0.98;;;;;;;;;;4961751;28;20034;-74
2023/12/23 05:57:36;;;;;;;10.10;1.42;;;;;;;;;;4984159;28;20053;-75
2023/12/23 06:00:05;;;;;;;3.13;0.75;;;;;;;;;;4980086;28;20512;-76
2023/12/23 06:02:31;;;;;;;6.88;0.82;;;;;;;;;;4968416;28;20129;-74
2023/12/23 06:04:57;;;;;;;4.97;0.70;;;;;;;;;;4968583;28;20425;-74
2023/12/23 06:07:23;;;;;;;1.73;0.57;;;;;;;;;;4980034;28;20120;-73
2023/12/23 06:09:49;;;;;;;2.72;0.60;;;;;;;;;;4981546;28;20048;-73
2023/12/23 06:12:15;;;;;;;7.10;0.93;;;;;;;;;;4984996;28;20052;-74
2023/12/23 06:14:42;;;;;;;5.57;0.88;;;;;;;;;;4987538;28;20038;-73
2023/12/23 06:17:08;;;;;;;5.50;0.88;;;;;;;;;;4968906;28;20042;-73
2023/12/23 06:19:34;;;;;;;7.53;1.63;;;;;;;;;;4987181;28;20464;-74
2023/12/23 06:22:01;;;;;;;12.75;0.98;;;;;;;;;;4989919;28;20033;-74
2023/12/23 06:24:27;;;;;;;3.90;0.75;;;;;;;;;;4969838;28;20034;-74
2023/12/23 06:26:53;;;;;;;6.65;0.80;;;;;;;;;;4967847;28;20034;-74
2023/12/23 06:29:19;;;;;;;10.95;1.10;;;;;;;;;;4967867;28;20050;-75
2023/12/23 06:31:45;;;;;;;2.58;0.75;;;;;;;;;;4986463;28;20107;-74
2023/12/23 06:34:11;;;;;;;4.18;1.00;;;;;;;;;;4983955;28;20037;-74
2023/12/23 06:36:37;;;;;;;5.35;0.80;;;;;;;;;;4987830;28;20065;-74
2023/12/23 06:39:03;;;;;;;3.10;0.80;;;;;;;;;;4974983;28;20508;-74
2023/12/23 06:41:30;;;;;;;5.40;0.55;;;;;;;;;;4986321;28;20041;-75
2023/12/23 06:43:56;;;;;;;4.35;0.90;;;;;;;;;;4974853;28;20705;-75
2023/12/23 06:46:22;;;;;;;5.22;0.90;;;;;;;;;;4986071;28;20030;-74
2023/12/23 06:48:48;;;;;;;7.90;1.20;;;;;;;;;;4987232;28;20045;-74
2023/12/23 06:51:14;;;;;;;8.20;0.80;;;;;;;;;;4955767;28;20042;-75
2023/12/23 06:53:40;;;;;;;3.80;0.47;;;;;;;;;;4974796;28;20058;-74
2023/12/23 06:56:08;;;;;;;4.32;0.60;;;;;;;;;;4975750;28;20042;-74
2023/12/23 06:58:34;;;;;;;7.10;0.85;;;;;;;;;;4987739;28;20042;-79
2023/12/23 07:01:00;;;;;;;2.83;0.68;;;;;;;;;;4982251;28;20125;-79
2023/12/23 07:03:26;;;;;;;2.30;0.75;;;;;;;;;;4985290;28;20117;-78
2023/12/23 07:05:52;;;;;;;5.38;2.17;;;;;;;;;;4987399;28;20041;-78
2023/12/23 07:08:18;;;;;;;1.85;0.88;;;;;;;;;;4989982;28;20123;-77
2023/12/23 07:10:44;;;;;;;5.07;0.77;;;;;;;;;;4990651;28;20519;-78
2023/12/23 07:13:10;;;;;;;3.42;0.50;;;;;;;;;;4990182;28;20172;-78
2023/12/23 07:15:36;;;;;;;4.25;0.65;;;;;;;;;;4972937;28;20042;-78
2023/12/23 07:18:02;;;;;;;3.75;0.70;;;;;;;;;;4969271;28;20058;-78
2023/12/23 07:20:31;;;;;;;7.88;0.55;;;;;;;;;;4985920;28;20514;-77
2023/12/23 07:22:57;;;;;;;5.85;1.13;;;;;;;;;;4991793;28;20034;-76
2023/12/23 07:25:23;;;;;;;4.47;0.80;;;;;;;;;;4998887;28;20169;-77
2023/12/23 07:27:49;;;;;;;5.53;0.63;;;;;;;;;;4995401;28;20053;-77
2023/12/23 07:30:15;;;;;;;4.80;0.88;;;;;;;;;;5002229;28;20149;-77
2023/12/23 07:32:41;;;;;;;4.55;0.57;;;;;;;;;;4985542;28;20041;-77
2023/12/23 07:35:08;;;;;;;6.55;0.80;;;;;;;;;;4979438;28;20417;-77
2023/12/23 07:37:34;;;;;;;3.90;0.60;;;;;;;;;;4985410;28;20046;-77
2023/12/23 07:40:04;;;;;;;6.65;0.73;;;;;;;;;;4976984;28;20041;-76
2023/12/23 07:42:30;;;;;;;6.18;0.80;;;;;;;;;;4974602;28;20046;-77
2023/12/23 07:44:56;;;;;;;8.23;0.60;;;;;;;;;;4992202;28;20038;-78
2023/12/23 07:47:22;;;;;;;6.10;0.60;;;;;;;;;;4975081;28;20049;-77
2023/12/23 07:49:48;;;;;;;2.78;0.80;;;;;;;;;;4994263;28;20596;-77
2023/12/23 07:52:14;;;;;;;1.90;0.85;;;;;;;;;;4960392;28;20128;-77
2023/12/23 07:54:40;;;;;;;0.50;0.40;;;;;;;;;;4988784;28;20045;-76
2023/12/23 07:57:06;;;;;;;4.72;0.70;;;;;;;;;;4996843;28;20046;-77
2023/12/23 07:59:33;;;;;;;2.30;0.85;;;;;;;;;;4990686;28;20038;-77
2023/12/23 08:01:59;;;;;;;9.27;1.45;;;;;;;;;;4991628;28;20037;-77
2023/12/23 08:04:25;;;;;;;3.03;1.65;;;;;;;;;;4984401;28;20041;-77
2023/12/23 08:06:52;;;;;;;1.58;1.08;;;;;;;;;;4971257;28;20045;-75
2023/12/23 08:09:18;;;;;;;6.82;1.58;;;;;;;;;;4969162;28;20052;-75
2023/12/23 08:11:44;;;;;;;6.70;1.13;;;;;;;;;;4986300;28;20056;-75
2023/12/23 08:14:11;;;;;;;2.95;1.10;;;;;;;;;;4955296;28;20151;-75
2023/12/23 08:16:37;;;;;;;5.28;1.35;;;;;;;;;;4989195;28;20053;-74
2023/12/23 08:19:03;;;;;;;4.00;1.02;;;;;;;;;;4988674;28;20034;-75
2023/12/23 08:21:30;;;;;;;11.23;1.30;;;;;;;;;;4987400;28;20496;-75
2023/12/23 08:23:56;;;;;;;4.68;1.20;;;;;;;;;;4984146;28;20033;-75
2023/12/23 08:26:22;;;;;;;2.90;1.10;;;;;;;;;;4982666;28;20037;-74
2023/12/23 08:28:48;;;;;;;2.33;1.30;;;;;;;;;;4955716;28;20500;-74
2023/12/23 08:31:14;;;;;;;3.97;1.38;;;;;;;;;;4970040;28;20433;-74
2023/12/23 08:33:40;;;;;;;3.50;2.00;;;;;;;;;;4985932;28;20042;-75
2023/12/23 08:36:06;;;;;;;5.82;1.80;;;;;;;;;;4984811;28;20531;-74
2023/12/23 08:38:32;;;;;;;7.78;2.45;;;;;;;;;;4971683;28;20046;-75
2023/12/23 08:40:58;;;;;;;5.70;2.22;;;;;;;;;;4953971;28;20065;-75
2023/12/23 08:43:25;;;;;;;5.25;2.08;;;;;;;;;;4971117;28;20046;-75
2023/12/23 08:45:51;;;;;;;4.13;2.08;;;;;;;;;;4984086;28;20045;-74
2023/12/23 08:48:17;;;;;;;5.35;1.27;;;;;;;;;;4974882;28;20116;-75
2023/12/23 08:50:43;;;;;;;1.17;0.88;;;;;;;;;;4982587;28;20042;-75
2023/12/23 08:53:09;;;;;;;3.47;0.80;;;;;;;;;;4975388;28;20049;-75
2023/12/23 08:55:35;;;;;;;5.18;1.10;;;;;;;;;;4972956;28;20477;-75
2023/12/23 08:58:02;;;;;;;3.95;1.00;;;;;;;;;;4958441;28;20132;-74
2023/12/23 09:00:28;;;;;;;1.52;1.00;;;;;;;;;;4991854;28;20129;-75
2023/12/23 09:02:54;;;;;;;7.15;1.33;;;;;;;;;;4988823;28;20038;-75
2023/12/23 09:05:20;;;;;;;2.13;1.80;;;;;;;;;;4980362;28;21342;-75
2023/12/23 09:07:46;;;;;;;7.28;2.28;;;;;;;;;;4975208;28;20068;-74
2023/12/23 09:10:12;;;;;;;11.27;2.08;;;;;;;;;;4986218;28;20072;-75
2023/12/23 09:12:39;;;;;;;4.00;2.40;;;;;;;;;;4987715;28;20271;-74
2023/12/23 09:15:08;;;;;;;4.80;1.75;;;;;;;;;;4988867;28;20042;-81
2023/12/23 09:17:34;;;;;;;5.28;1.20;;;;;;;;;;4990676;28;20049;-81
2023/12/23 09:20:00;;;;;;;2.58;0.80;;;;;;;;;;4992009;28;20072;-81
2023/12/23 09:22:26;;;;;;;7.53;1.27;;;;;;;;;;4973568;28;20065;-80
2023/12/23 09:24:52;;;;;;;6.07;1.40;;;;;;;;;;4973835;28;20042;-81
2023/12/23 09:27:19;;;;;;;1.05;0.80;;;;;;;;;;4991747;28;20034;-81
2023/12/23 09:29:45;;;;;;;2.05;0.90;;;;;;;;;;4974062;28;20501;-82
2023/12/23 09:32:11;;;;;;;4.55;1.13;;;;;;;;;;4981888;28;20056;-81
2023/12/23 09:34:37;;;;;;;3.42;0.85;;;;;;;;;;4971658;28;20038;-81
2023/12/23 09:37:03;;;;;;;5.38;1.20;;;;;;;;;;4992695;28;20064;-81
2023/12/23 09:39:29;;;;;;;2.50;0.90;;;;;;;;;;4991338;28;20128;-81
2023/12/23 09:42:00;;;;;;;3.05;1.00;;;;;;;;;;4976598;28;20045;-81
2023/12/23 09:44:26;;;;;;;10.27;1.30;;;;;;;;;;4975677;28;20052;-82
2023/12/23 09:46:52;;;;;;;2.60;1.00;;;;;;;;;;4989794;28;20119;-83
2023/12/23 09:49:18;;;;;;;2.90;1.25;;;;;;;;;;4954364;28;20041;-81
2023/12/23 09:51:44;;;;;;;3.35;1.67;;;;;;;;;;4988528;28;20045;-82
2023/12/23 09:54:14;;;;;;;4.82;2.20;;;;;;;;;;4990252;28;20059;-82
2023/12/23 09:56:40;;;;;;;8.73;1.83;;;;;;;;;;4985837;28;20116;-81
2023/12/23 09:59:06;;;;;;;3.40;1.80;;;;;;;;;;4974517;28;20450;-80
2023/12/23 10:01:32;;;;;;;7.82;2.20;;;;;;;;;;4970292;28;20048;-77
2023/12/23 10:03:58;;;;;;;2.78;2.30;;;;;;;;;;4987441;28;20096;-76
2023/12/23 10:06:25;;;;;;;3.05;2.03;;;;;;;;;;4969369;28;20038;-74
2023/12/23 10:08:51;;;;;;;5.88;2.60;;;;;;;;;;4972122;28;20046;-74
2023/12/23 10:11:17;;;;;;;4.78;1.80;;;;;;;;;;4988477;28;20052;-78
2023/12/23 10:13:43;;;;;;;2.50;1.33;;;;;;;;;;4965379;28;20042;-76
2023/12/23 10:16:10;;;;;;;1.85;0.93;;;;;;;;;;4970393;28;20044;-77
2023/12/23 10:18:40;;;;;;;1.40;1.20;;;;;;;;;;4972245;28;20045;-76
2023/12/23 10:21:06;;;;;;;1.45;1.05;;;;;;;;;;4968783;28;21431;-78
2023/12/23 10:23:33;;;;;;;2.75;1.23;;;;;;;;;;4986238;28;20038;-75
2023/12/23 10:25:59;;;;;;;2.45;1.25;;;;;;;;;;4988520;28;20038;-76
2023/12/23 10:28:25;;;;;;;3.90;1.60;;;;;;;;;;4977666;28;20045;-80
2023/12/23 10:30:52;;;;;;;1.05;0.90;;;;;;;;;;4978626;28;20064;-81
2023/12/23 10:33:19;;;;;;;4.43;1.10;;;;;;;;;;4962811;28;20049;-81
2023/12/23 10:35:46;;;;;;;2.05;0.98;;;;;;;;;;4978342;28;20045;-81
2023/12/23 10:38:17;;;;;;;2.60;1.70;;;;;;;;;;4990784;28;20048;-81
2023/12/23 10:40:48;;;;;;;1.40;0.80;;;;;;;;;;4990639;28;20038;-81
2023/12/23 10:43:16;;;;;;;2.10;0.80;;;;;;;;;;4975593;28;20559;-82
2023/12/23 10:45:42;;;;;;;0.80;0.80;;;;;;;;;;4979336;28;20065;-81
2023/12/23 10:48:09;;;;;;;103.13;9.10;;;;;;;;;;4971800;28;20048;-81
2023/12/23 10:50:36;;;;;;;410.75;21.38;;;;;;;;;;4976692;28;20107;-78
2023/12/23 10:53:02;;;;;;;17.63;2.55;;;;;;;;;;4990491;28;20046;-80
2023/12/23 10:55:28;;;;;;;12.15;2.03;;;;;;;;;;4969195;28;20056;-81
2023/12/23 10:57:55;;;;;;;3.53;0.85;;;;;;;;;;4975070;28;20030;-80
2023/12/23 11:00:21;;;;;;;2.17;0.88;;;;;;;;;;4960124;28;21446;-81
2023/12/23 11:02:49;;;;;;;3.50;1.23;;;;;;;;;;4973708;28;20397;-80
2023/12/23 11:05:17;;;;;;;2.55;1.35;;;;;;;;;;4975172;28;20050;-81
2023/12/23 11:07:46;;;;;;;1.42;0.90;;;;;;;;;;4956328;28;20050;-80
2023/12/23 11:10:13;;;;;;;1.80;1.10;;;;;;;;;;4970684;28;20042;-79
2023/12/23 11:12:40;;;;;;;2.38;1.92;;;;;;;;;;4984807;28;20050;-81
2023/12/23 11:15:06;;;;;;;1.77;1.38;;;;;;;;;;4954852;28;20053;-79
2023/12/23 11:17:33;;;;;;;1.40;1.30;;;;;;;;;;4987364;28;20050;-81
2023/12/23 11:19:59;;;;;;;1.45;1.35;;;;;;;;;;4989364;28;20046;-81
2023/12/23 11:22:27;;;;;;;1.85;1.30;;;;;;;;;;4959573;28;20042;-82
2023/12/23 11:24:54;;;;;;;2.13;1.50;;;;;;;;;;4983704;28;20084;-81
2023/12/23 11:27:33;;;;;;;1.17;1.02;;;;;;;;;;4973324;28;20421;-78
2023/12/23 11:30:00;;;;;;;1.52;0.98;;;;;;;;;;4968114;28;20054;-79
2023/12/23 11:32:33;;;;;;;2.22;1.98;;;;;;;;;;4987890;28;20048;-81
2023/12/23 11:35:00;;;;;;;1.40;1.30;;;;;;;;;;4985749;28;20124;-81
2023/12/23 11:38:02;;;;;;;0.77;0.77;;;;;;;;;;4974309;28;20393;-81
2023/12/23 11:40:30;;;;;;;1.25;1.15;;;;;;;;;;4907713;29;20040;-81
2023/12/23 11:42:56;;;;;;;1.73;0.70;;;;;;;;;;4974543;28;20050;-78
2023/12/23 11:45:22;;;;;;;0.88;0.88;;;;;;;;;;4988368;28;20042;-82
2023/12/23 11:47:51;;;;;;;2.55;1.60;;;;;;;;;;4986947;28;20042;-77
2023/12/23 11:50:17;;;;;;;2.00;1.67;;;;;;;;;;4990078;28;20045;-77
2023/12/23 11:52:45;;;;;;;1.40;1.30;;;;;;;;;;4986955;28;20137;-78
2023/12/23 11:55:11;;;;;;;1.75;0.40;;;;;;;;;;4972979;28;20046;-77
2023/12/23 11:57:37;;;;;;;1.02;0.85;;;;;;;;;;4973590;28;20092;-76
2023/12/23 12:00:04;;;;;;;0.60;0.60;;;;;;;;;;4987156;28;20078;-77
2023/12/23 12:02:31;;;;;;;1.55;0.40;;;;;;;;;;4971919;28;20118;-77
2023/12/23 12:04:57;;;;;;;0.40;0.40;;;;;;;;;;4986719;28;20038;-77
2023/12/23 12:07:23;;;;;;;1.88;0.40;;;;;;;;;;4970522;28;20076;-77
2023/12/23 12:09:50;;;;;;;0.40;0.38;;;;;;;;;;4974208;28;20532;-77
2023/12/23 12:12:16;;;;;;;0.30;0.30;;;;;;;;;;4989144;28;20452;-77
2023/12/23 12:14:42;;;;;;;0.63;0.40;;;;;;;;;;4985167;28;20099;-77
2023/12/23 12:17:29;;;;;;;1.20;0.40;;;;;;;;;;4974324;28;20069;-77
2023/12/23 12:19:55;;;;;;;0.50;0.50;;;;;;;;;;4991236;28;20041;-76
2023/12/23 12:22:21;;;;;;;0.90;0.80;;;;;;;;;;4971041;28;20036;-77
2023/12/23 12:24:48;;;;;;;1.55;0.63;;;;;;;;;;4973293;28;20034;-76
2023/12/23 12:27:14;;;;;;;1.00;1.00;;;;;;;;;;4972646;28;20053;-76
2023/12/23 12:29:40;;;;;;;1.33;0.60;;;;;;;;;;4974237;28;20049;-77
2023/12/23 12:32:12;;;;;;;0.45;0.45;;;;;;;;;;4966558;28;20104;-77
2023/12/23 12:34:38;;;;;;;0.60;0.60;;;;;;;;;;4990147;28;20045;-78
2023/12/23 12:37:04;;;;;;;0.80;0.80;;;;;;;;;;4989269;28;20045;-75
2023/12/23 12:39:30;;;;;;;0.80;0.80;;;;;;;;;;4970494;28;20136;-75
2023/12/23 12:41:56;;;;;;;0.57;0.57;;;;;;;;;;4970319;28;20037;-75
2023/12/23 12:44:22;;;;;;;1.63;0.50;;;;;;;;;;4992112;28;20061;-75
2023/12/23 12:46:53;;;;;;;0.40;0.40;;;;;;;;;;4957722;28;20147;-75
2023/12/23 12:49:22;;;;;;;0.43;0.43;;;;;;;;;;4973330;28;20184;-77
2023/12/23 12:51:48;;;;;;;0.70;0.70;;;;;;;;;;4973172;28;20132;-74
2023/12/23 12:54:15;;;;;;;0.70;0.70;;;;;;;;;;4976817;28;20374;-76
2023/12/23 12:56:41;;;;;;;0.75;0.75;;;;;;;;;;4973913;28;20493;-84
2023/12/23 12:59:07;;;;;;;0.70;0.70;;;;;;;;;;4972561;28;20088;-85
2023/12/23 13:01:34;;;;;;;0.70;0.70;;;;;;;;;;4972959;28;20510;-82
2023/12/23 13:04:00;;;;;;;2.55;0.60;;;;;;;;;;4959526;28;20033;-80
2023/12/23 13:06:26;;;;;;;0.50;0.50;;;;;;;;;;4958868;28;20037;-82
2023/12/23 13:08:52;;;;;;;0.70;0.70;;;;;;;;;;4990858;28;20038;-82
2023/12/23 13:11:18;;;;;;;0.73;0.70;;;;;;;;;;4988242;28;20054;-81
2023/12/23 13:13:44;;;;;;;0.55;0.55;;;;;;;;;;4991914;28;20041;-80
2023/12/23 13:16:10;;;;;;;0.55;0.55;;;;;;;;;;4974322;28;20539;-82
2023/12/23 13:18:36;;;;;;;0.60;0.60;;;;;;;;;;4986406;28;20117;-82
2023/12/23 13:21:02;;;;;;;2.55;0.80;;;;;;;;;;4960871;28;20048;-81
2023/12/23 13:23:29;;;;;;;1.00;0.70;;;;;;;;;;4973902;28;20036;-81
2023/12/23 13:25:55;;;;;;;0.50;0.50;;;;;;;;;;4968198;28;20462;-82
2023/12/23 13:28:21;;;;;;;0.40;0.40;;;;;;;;;;4988742;28;20038;-82
2023/12/23 13:30:47;;;;;;;2.40;1.50;;;;;;;;;;4983342;28;20053;-79
2023/12/23 13:33:13;;;;;;;39.28;2.45;;;;;;;;;;4952089;28;20075;-81
2023/12/23 13:35:39;;;;;;;9.65;1.40;;;;;;;;;;4962044;28;20057;-80
2023/12/23 13:38:05;;;;;;;27.02;1.88;;;;;;;;;;4968865;28;20037;-80
2023/12/23 13:40:32;;;;;;;2.35;1.00;;;;;;;;;;4991573;28;20382;-79
2023/12/23 13:42:58;;;;;;;1.27;1.00;;;;;;;;;;4968212;28;20042;-79
2023/12/23 13:45:24;;;;;;;2.35;1.63;;;;;;;;;;4949947;28;20129;-80
2023/12/23 13:47:50;;;;;;;7.28;3.15;;;;;;;;;;4991957;28;20052;-79
2023/12/23 13:50:17;;;;;;;5.13;2.10;;;;;;;;;;4984871;28;20053;-82
2023/12/23 13:52:43;;;;;;;9.82;5.18;;;;;;;;;;4983485;28;20493;-81
2023/12/23 13:55:09;;;;;;;2.72;2.20;;;;;;;;;;4963256;28;20471;-79
2023/12/23 13:57:35;;;;;;;2.45;1.60;;;;;;;;;;4986118;28;20132;-75
2023/12/23 14:00:01;;;;;;;2.33;1.70;;;;;;;;;;4973182;28;20058;-75
2023/12/23 14:02:27;;;;;;;1.65;1.42;;;;;;;;;;4987738;28;20336;-74
2023/12/23 14:04:53;;;;;;;1.30;1.20;;;;;;;;;;4975181;28;20068;-75
2023/12/23 14:07:19;;;;;;;4.35;1.60;;;;;;;;;;4973052;28;20037;-75
2023/12/23 14:09:46;;;;;;;2.90;1.55;;;;;;;;;;4992123;28;20049;-77
2023/12/23 14:12:12;;;;;;;1.95;1.50;;;;;;;;;;4986925;28;20138;-75
2023/12/23 14:14:38;;;;;;;2.45;1.90;;;;;;;;;;4990715;28;20551;-76
2023/12/23 14:17:04;;;;;;;2.03;1.80;;;;;;;;;;4973771;28;20138;-75
2023/12/23 14:19:30;;;;;;;1.85;1.63;;;;;;;;;;4974599;28;20123;-76
2023/12/23 14:21:56;;;;;;;3.33;1.70;;;;;;;;;;4987203;28;20049;-76
2023/12/23 14:24:22;;;;;;;2.95;1.70;;;;;;;;;;4991285;28;20130;-76
2023/12/23 14:26:48;;;;;;;6.90;1.80;;;;;;;;;;4995087;28;20038;-76
2023/12/23 14:29:14;;;;;;;2.17;1.50;;;;;;;;;;4990158;28;20046;-77
2023/12/23 14:31:40;;;;;;;1.55;1.40;;;;;;;;;;4977057;28;20057;-76
2023/12/23 14:34:06;;;;;;;2.28;1.98;;;;;;;;;;4987788;28;20037;-77